sensor_id;sensor_type;location;lat;lon;timestamp;pressure;altitude;pressure_sealevel;temperature;humidity
19761;BME280;10039;42.632;23.408;2023-05-22T00:02:05;94750.63;;;15.09;71.49
19761;BME280;10039;42.632;23.408;2023-05-22T00:04:30;94749.56;;;14.97;72.22
19761;BME280;10039;42.632;23.408;2023-05-22T00:06:56;94741.66;;;15.03;71.88
19761;BME280;10039;42.632;23.408;2023-05-22T00:09:24;94737.91;;;15.00;71.36
19761;BME280;10039;42.632;23.408;2023-05-22T00:11:50;94734.38;;;15.21;70.67
19761;BME280;10039;42.632;23.408;2023-05-22T00:14:15;94744.91;;;15.46;69.58
19761;BME280;10039;42.632;23.408;2023-05-22T00:16:41;94745.66;;;15.56;69.12
19761;BME280;10039;42.632;23.408;2023-05-22T00:19:07;94741.75;;;15.57;69.52
19761;BME280;10039;42.632;23.408;2023-05-22T00:21:44;94744.75;;;15.59;69.34
19761;BME280;10039;42.632;23.408;2023-05-22T00:24:11;94741.31;;;15.49;70.04
19761;BME280;10039;42.632;23.408;2023-05-22T00:26:36;94735.94;;;15.49;69.52
19761;BME280;10039;42.632;23.408;2023-05-22T00:29:02;94734.88;;;15.38;70.26
19761;BME280;10039;42.632;23.408;2023-05-22T00:31:30;94739.94;;;15.36;70.83
19761;BME280;10039;42.632;23.408;2023-05-22T00:33:57;94741.97;;;15.14;71.98
19761;BME280;10039;42.632;23.408;2023-05-22T00:36:23;94735.69;;;15.17;71.67
19761;BME280;10039;42.632;23.408;2023-05-22T00:38:48;94748.31;;;15.29;71.16
19761;BME280;10039;42.632;23.408;2023-05-22T00:41:15;94741.09;;;15.26;70.85
19761;BME280;10039;42.632;23.408;2023-05-22T00:43:40;94743.22;;;15.31;70.86
19761;BME280;10039;42.632;23.408;2023-05-22T00:46:06;94739.94;;;15.36;70.21
19761;BME280;10039;42.632;23.408;2023-05-22T00:48:34;94741.47;;;15.55;69.74
19761;BME280;10039;42.632;23.408;2023-05-22T00:50:59;94741.47;;;15.64;69.31
19761;BME280;10039;42.632;23.408;2023-05-22T00:53:27;94722.19;;;15.56;69.02
19761;BME280;10039;42.632;23.408;2023-05-22T00:55:53;94731.31;;;15.68;68.90
19761;BME280;10039;42.632;23.408;2023-05-22T00:58:19;94742.22;;;15.73;68.60
19761;BME280;10039;42.632;23.408;2023-05-22T01:00:46;94744.78;;;15.76;68.55
19761;BME280;10039;42.632;23.408;2023-05-22T01:03:12;94736.53;;;15.71;68.77
19761;BME280;10039;42.632;23.408;2023-05-22T01:05:39;94739.09;;;15.66;69.08
19761;BME280;10039;42.632;23.408;2023-05-22T01:08:08;94739.06;;;15.57;69.63
19761;BME280;10039;42.632;23.408;2023-05-22T01:10:35;94743.13;;;15.61;69.37
19761;BME280;10039;42.632;23.408;2023-05-22T01:15:54;94743.69;;;15.65;68.89
19761;BME280;10039;42.632;23.408;2023-05-22T01:18:29;94727.09;;;15.31;70.74
19761;BME280;10039;42.632;23.408;2023-05-22T01:31:58;94731.22;;;15.23;70.58
19761;BME280;10039;42.632;23.408;2023-05-22T01:34:25;94730.69;;;15.28;70.73
19761;BME280;10039;42.632;23.408;2023-05-22T01:36:52;94722.25;;;15.17;71.26
19761;BME280;10039;42.632;23.408;2023-05-22T01:39:21;94730.63;;;15.10;71.93
19761;BME280;10039;42.632;23.408;2023-05-22T01:41:46;94715.31;;;14.80;72.20
19761;BME280;10039;42.632;23.408;2023-05-22T01:44:12;94736.09;;;14.88;72.73
19761;BME280;10039;42.632;23.408;2023-05-22T01:46:37;94720.91;;;14.64;72.85
19761;BME280;10039;42.632;23.408;2023-05-22T01:49:03;94720.69;;;14.89;72.86
19761;BME280;10039;42.632;23.408;2023-05-22T01:51:51;94730.91;;;15.03;71.86
19761;BME280;10039;42.632;23.408;2023-05-22T01:54:25;94726.25;;;15.03;71.98
19761;BME280;10039;42.632;23.408;2023-05-22T02:02:09;94721.91;;;14.97;72.03
19761;BME280;10039;42.632;23.408;2023-05-22T02:04:41;94722.97;;;14.99;71.78
19761;BME280;10039;42.632;23.408;2023-05-22T02:07:10;94733.56;;;14.94;71.85
19761;BME280;10039;42.632;23.408;2023-05-22T02:09:37;94722.91;;;14.81;72.03
19761;BME280;10039;42.632;23.408;2023-05-22T02:12:04;94694.22;;;14.60;72.19
19761;BME280;10039;42.632;23.408;2023-05-22T02:14:30;94722.72;;;14.67;72.80
19761;BME280;10039;42.632;23.408;2023-05-22T02:16:56;94690.88;;;14.48;72.52
19761;BME280;10039;42.632;23.408;2023-05-22T02:19:23;94727.94;;;14.61;73.02
19761;BME280;10039;42.632;23.408;2023-05-22T02:21:48;94727.63;;;14.68;72.45
19761;BME280;10039;42.632;23.408;2023-05-22T02:24:14;94745.53;;;14.62;72.93
19761;BME280;10039;42.632;23.408;2023-05-22T02:26:40;94726.88;;;14.59;73.06
19761;BME280;10039;42.632;23.408;2023-05-22T02:29:06;94726.28;;;14.64;72.35
19761;BME280;10039;42.632;23.408;2023-05-22T02:31:32;94734.66;;;14.66;72.92
19761;BME280;10039;42.632;23.408;2023-05-22T02:33:57;94737.13;;;14.52;73.23
19761;BME280;10039;42.632;23.408;2023-05-22T02:36:22;94735.47;;;14.45;73.38
19761;BME280;10039;42.632;23.408;2023-05-22T02:38:50;94739.28;;;14.35;73.77
19761;BME280;10039;42.632;23.408;2023-05-22T02:41:17;94724.28;;;14.16;74.13
19761;BME280;10039;42.632;23.408;2023-05-22T02:43:43;94734.00;;;14.01;75.03
19761;BME280;10039;42.632;23.408;2023-05-22T02:46:08;94688.84;;;13.78;74.63
19761;BME280;10039;42.632;23.408;2023-05-22T02:48:33;94725.47;;;14.15;74.22
19761;BME280;10039;42.632;23.408;2023-05-22T02:50:59;94728.94;;;14.25;74.32
19761;BME280;10039;42.632;23.408;2023-05-22T02:53:25;94721.50;;;14.29;74.06
19761;BME280;10039;42.632;23.408;2023-05-22T02:55:50;94729.94;;;13.97;75.41
19761;BME280;10039;42.632;23.408;2023-05-22T02:58:17;94718.03;;;13.98;74.92
19761;BME280;10039;42.632;23.408;2023-05-22T03:00:43;94732.25;;;14.07;74.83
19761;BME280;10039;42.632;23.408;2023-05-22T03:03:09;94722.81;;;14.03;74.84
19761;BME280;10039;42.632;23.408;2023-05-22T03:05:36;94720.31;;;14.08;74.41
19761;BME280;10039;42.632;23.408;2023-05-22T03:08:01;94724.28;;;14.16;74.46
19761;BME280;10039;42.632;23.408;2023-05-22T03:10:27;94716.50;;;14.18;74.34
19761;BME280;10039;42.632;23.408;2023-05-22T03:12:52;94723.56;;;14.25;73.81
19761;BME280;10039;42.632;23.408;2023-05-22T03:15:18;94728.47;;;14.17;74.59
19761;BME280;10039;42.632;23.408;2023-05-22T03:17:44;94712.69;;;14.07;74.28
19761;BME280;10039;42.632;23.408;2023-05-22T03:20:10;94730.19;;;14.11;74.91
19761;BME280;10039;42.632;23.408;2023-05-22T03:22:35;94729.25;;;14.05;74.94
19761;BME280;10039;42.632;23.408;2023-05-22T03:25:01;94721.19;;;14.05;74.66
19761;BME280;10039;42.632;23.408;2023-05-22T03:27:26;94726.66;;;14.14;74.06
19761;BME280;10039;42.632;23.408;2023-05-22T03:29:52;94731.25;;;14.14;74.71
19761;BME280;10039;42.632;23.408;2023-05-22T03:32:17;94717.63;;;14.08;73.90
19761;BME280;10039;42.632;23.408;2023-05-22T03:34:43;94718.47;;;14.18;73.89
19761;BME280;10039;42.632;23.408;2023-05-22T03:37:09;94733.00;;;14.29;73.41
19761;BME280;10039;42.632;23.408;2023-05-22T03:39:35;94720.59;;;14.23;73.99
19761;BME280;10039;42.632;23.408;2023-05-22T03:42:00;94735.97;;;14.10;74.87
19761;BME280;10039;42.632;23.408;2023-05-22T03:44:26;94718.84;;;13.86;75.79
19761;BME280;10039;42.632;23.408;2023-05-22T03:46:51;94724.13;;;13.77;76.19
19761;BME280;10039;42.632;23.408;2023-05-22T03:49:17;94729.63;;;13.95;75.35
19761;BME280;10039;42.632;23.408;2023-05-22T03:51:42;94725.94;;;14.01;74.80
19761;BME280;10039;42.632;23.408;2023-05-22T03:54:08;94705.88;;;13.84;74.80
19761;BME280;10039;42.632;23.408;2023-05-22T03:56:33;94735.50;;;14.02;75.03
19761;BME280;10039;42.632;23.408;2023-05-22T03:58:59;94738.34;;;14.08;75.44
19761;BME280;10039;42.632;23.408;2023-05-22T04:01:25;94742.75;;;14.14;74.85
19761;BME280;10039;42.632;23.408;2023-05-22T04:03:51;94746.81;;;14.19;74.53
19761;BME280;10039;42.632;23.408;2023-05-22T04:06:16;94739.47;;;14.19;74.29
19761;BME280;10039;42.632;23.408;2023-05-22T04:08:46;94732.88;;;14.11;74.42
19761;BME280;10039;42.632;23.408;2023-05-22T04:11:11;94750.72;;;14.27;74.62
19761;BME280;10039;42.632;23.408;2023-05-22T04:13:40;94739.84;;;14.30;74.37
19761;BME280;10039;42.632;23.408;2023-05-22T04:16:05;94735.09;;;14.34;73.72
19761;BME280;10039;42.632;23.408;2023-05-22T04:18:31;94725.56;;;14.33;73.88
19761;BME280;10039;42.632;23.408;2023-05-22T04:20:56;94724.31;;;14.25;73.83
19761;BME280;10039;42.632;23.408;2023-05-22T04:23:22;94735.78;;;14.47;74.04
19761;BME280;10039;42.632;23.408;2023-05-22T04:25:47;94715.06;;;14.26;74.49
19761;BME280;10039;42.632;23.408;2023-05-22T04:28:13;94746.53;;;14.56;73.86
19761;BME280;10039;42.632;23.408;2023-05-22T04:30:42;94744.78;;;14.62;74.23
19761;BME280;10039;42.632;23.408;2023-05-22T04:33:07;94743.75;;;14.68;73.89
19761;BME280;10039;42.632;23.408;2023-05-22T04:35:32;94750.38;;;14.76;74.18
19761;BME280;10039;42.632;23.408;2023-05-22T04:37:58;94752.38;;;14.94;73.81
19761;BME280;10039;42.632;23.408;2023-05-22T04:40:26;94727.28;;;14.97;73.36
19761;BME280;10039;42.632;23.408;2023-05-22T04:42:53;94717.03;;;15.13;72.52
19761;BME280;10039;42.632;23.408;2023-05-22T04:45:19;94747.44;;;15.50;71.88
19761;BME280;10039;42.632;23.408;2023-05-22T04:47:50;94749.84;;;15.66;71.37
19761;BME280;10039;42.632;23.408;2023-05-22T04:50:16;94745.66;;;15.82;71.62
19761;BME280;10039;42.632;23.408;2023-05-22T04:52:43;94743.09;;;16.06;70.89
19761;BME280;10039;42.632;23.408;2023-05-22T04:55:08;94747.09;;;16.28;70.22
19761;BME280;10039;42.632;23.408;2023-05-22T04:57:37;94737.06;;;16.47;69.07
19761;BME280;10039;42.632;23.408;2023-05-22T05:00:03;94739.84;;;16.70;68.24
19761;BME280;10039;42.632;23.408;2023-05-22T05:02:29;94741.41;;;16.86;68.48
19761;BME280;10039;42.632;23.408;2023-05-22T05:04:55;94734.84;;;17.10;67.68
19761;BME280;10039;42.632;23.408;2023-05-22T05:07:20;94732.34;;;17.30;66.91
19761;BME280;10039;42.632;23.408;2023-05-22T05:09:45;94736.44;;;17.49;66.05
19761;BME280;10039;42.632;23.408;2023-05-22T05:12:11;94738.06;;;17.70;65.64
19761;BME280;10039;42.632;23.408;2023-05-22T05:14:36;94736.41;;;17.72;62.80
19761;BME280;10039;42.632;23.408;2023-05-22T05:17:02;94745.78;;;18.00;63.85
19761;BME280;10039;42.632;23.408;2023-05-22T05:19:28;94751.44;;;18.25;63.18
19761;BME280;10039;42.632;23.408;2023-05-22T05:21:53;94745.47;;;18.36;61.32
19761;BME280;10039;42.632;23.408;2023-05-22T05:24:19;94744.06;;;18.40;60.63
19761;BME280;10039;42.632;23.408;2023-05-22T05:26:45;94732.38;;;18.20;59.89
19761;BME280;10039;42.632;23.408;2023-05-22T05:29:10;94749.75;;;18.42;60.40
19761;BME280;10039;42.632;23.408;2023-05-22T05:31:37;94736.34;;;18.62;60.86
19761;BME280;10039;42.632;23.408;2023-05-22T05:34:02;94742.75;;;18.79;59.62
19761;BME280;10039;42.632;23.408;2023-05-22T05:36:28;94737.28;;;18.59;59.03
19761;BME280;10039;42.632;23.408;2023-05-22T05:38:53;94750.50;;;18.86;59.46
19761;BME280;10039;42.632;23.408;2023-05-22T05:41:19;94743.22;;;18.92;58.51
19761;BME280;10039;42.632;23.408;2023-05-22T05:43:45;94752.53;;;18.91;57.92
19761;BME280;10039;42.632;23.408;2023-05-22T05:46:11;94748.97;;;19.00;57.39
19761;BME280;10039;42.632;23.408;2023-05-22T05:48:36;94751.00;;;19.19;57.07
19761;BME280;10039;42.632;23.408;2023-05-22T05:51:02;94755.03;;;19.43;56.88
19761;BME280;10039;42.632;23.408;2023-05-22T05:53:27;94739.53;;;19.44;56.58
19761;BME280;10039;42.632;23.408;2023-05-22T05:55:53;94753.94;;;19.35;56.32
19761;BME280;10039;42.632;23.408;2023-05-22T05:58:18;94738.16;;;19.34;56.36
19761;BME280;10039;42.632;23.408;2023-05-22T06:00:44;94755.78;;;19.64;55.34
19761;BME280;10039;42.632;23.408;2023-05-22T06:03:09;94752.88;;;19.67;54.36
19761;BME280;10039;42.632;23.408;2023-05-22T06:05:34;94744.41;;;19.80;53.45
19761;BME280;10039;42.632;23.408;2023-05-22T06:08:00;94745.50;;;19.88;53.95
19761;BME280;10039;42.632;23.408;2023-05-22T06:10:25;94738.31;;;20.05;54.24
19761;BME280;10039;42.632;23.408;2023-05-22T06:12:50;94737.03;;;20.26;53.03
19761;BME280;10039;42.632;23.408;2023-05-22T06:15:16;94753.69;;;20.38;50.55
19761;BME280;10039;42.632;23.408;2023-05-22T06:17:42;94739.28;;;20.52;52.87
19761;BME280;10039;42.632;23.408;2023-05-22T06:20:07;94728.44;;;20.52;50.83
19761;BME280;10039;42.632;23.408;2023-05-22T06:22:33;94750.84;;;20.78;50.86
19761;BME280;10039;42.632;23.408;2023-05-22T06:24:58;94720.06;;;20.81;51.64
19761;BME280;10039;42.632;23.408;2023-05-22T06:27:24;94717.13;;;20.85;50.17
19761;BME280;10039;42.632;23.408;2023-05-22T06:29:52;94753.34;;;21.13;50.48
19761;BME280;10039;42.632;23.408;2023-05-22T06:32:17;94755.09;;;21.16;49.26
19761;BME280;10039;42.632;23.408;2023-05-22T06:34:47;94748.81;;;20.73;48.66
19761;BME280;10039;42.632;23.408;2023-05-22T06:37:13;94739.75;;;21.07;49.88
19761;BME280;10039;42.632;23.408;2023-05-22T06:39:40;94754.31;;;21.46;50.12
19761;BME280;10039;42.632;23.408;2023-05-22T06:42:05;94746.47;;;21.59;49.61
19761;BME280;10039;42.632;23.408;2023-05-22T06:44:31;94754.19;;;21.71;48.91
19761;BME280;10039;42.632;23.408;2023-05-22T06:46:56;94751.09;;;21.95;48.85
19761;BME280;10039;42.632;23.408;2023-05-22T06:49:22;94749.91;;;22.18;48.73
19761;BME280;10039;42.632;23.408;2023-05-22T06:51:47;94742.03;;;22.25;50.12
19761;BME280;10039;42.632;23.408;2023-05-22T06:54:13;94746.31;;;22.43;48.14
19761;BME280;10039;42.632;23.408;2023-05-22T06:56:39;94748.47;;;22.28;47.69
19761;BME280;10039;42.632;23.408;2023-05-22T06:59:05;94735.59;;;22.17;48.76
19761;BME280;10039;42.632;23.408;2023-05-22T07:01:30;94742.81;;;22.37;47.56
19761;BME280;10039;42.632;23.408;2023-05-22T07:03:57;94737.59;;;22.22;47.00
19761;BME280;10039;42.632;23.408;2023-05-22T07:06:25;94744.31;;;22.38;47.82
19761;BME280;10039;42.632;23.408;2023-05-22T07:08:51;94753.25;;;22.66;48.17
19761;BME280;10039;42.632;23.408;2023-05-22T07:11:17;94749.78;;;22.92;47.56
19761;BME280;10039;42.632;23.408;2023-05-22T07:13:42;94752.03;;;23.16;47.31
19761;BME280;10039;42.632;23.408;2023-05-22T07:16:08;94737.91;;;23.17;46.26
19761;BME280;10039;42.632;23.408;2023-05-22T07:18:33;94746.34;;;23.19;45.61
19761;BME280;10039;42.632;23.408;2023-05-22T07:20:59;94729.25;;;22.75;44.68
19761;BME280;10039;42.632;23.408;2023-05-22T07:23:24;94730.97;;;22.83;46.01
19761;BME280;10039;42.632;23.408;2023-05-22T07:25:50;94731.00;;;22.94;45.24
19761;BME280;10039;42.632;23.408;2023-05-22T07:28:15;94720.09;;;23.16;45.67
19761;BME280;10039;42.632;23.408;2023-05-22T07:30:41;94748.31;;;23.35;45.48
19761;BME280;10039;42.632;23.408;2023-05-22T07:33:06;94752.28;;;23.34;43.59
19761;BME280;10039;42.632;23.408;2023-05-22T07:35:32;94750.75;;;23.44;44.88
19761;BME280;10039;42.632;23.408;2023-05-22T07:37:58;94727.47;;;23.38;43.75
19761;BME280;10039;42.632;23.408;2023-05-22T07:40:24;94722.53;;;23.36;43.96
19761;BME280;10039;42.632;23.408;2023-05-22T07:42:49;94742.28;;;23.59;44.33
19761;BME280;10039;42.632;23.408;2023-05-22T07:45:14;94730.72;;;23.36;45.25
19761;BME280;10039;42.632;23.408;2023-05-22T07:47:40;94721.31;;;23.26;44.79
19761;BME280;10039;42.632;23.408;2023-05-22T07:50:06;94738.88;;;23.36;45.07
19761;BME280;10039;42.632;23.408;2023-05-22T07:52:31;94741.84;;;23.33;45.07
19761;BME280;10039;42.632;23.408;2023-05-22T07:54:57;94717.88;;;22.93;44.81
19761;BME280;10039;42.632;23.408;2023-05-22T07:57:22;94733.69;;;23.27;45.98
19761;BME280;10039;42.632;23.408;2023-05-22T07:59:48;94730.19;;;23.49;45.81
19761;BME280;10039;42.632;23.408;2023-05-22T08:02:16;94724.28;;;23.39;46.46
19761;BME280;10039;42.632;23.408;2023-05-22T08:04:41;94729.66;;;23.61;44.48
19761;BME280;10039;42.632;23.408;2023-05-22T08:07:09;94740.28;;;23.70;45.01
19761;BME280;10039;42.632;23.408;2023-05-22T08:09:35;94730.34;;;23.78;44.31
19761;BME280;10039;42.632;23.408;2023-05-22T08:12:01;94740.00;;;23.85;43.03
19761;BME280;10039;42.632;23.408;2023-05-22T08:14:27;94741.06;;;23.54;45.05
19761;BME280;10039;42.632;23.408;2023-05-22T08:16:53;94735.47;;;23.08;44.78
19761;BME280;10039;42.632;23.408;2023-05-22T08:19:18;94733.47;;;23.03;44.95
19761;BME280;10039;42.632;23.408;2023-05-22T08:21:43;94700.03;;;22.97;44.58
19761;BME280;10039;42.632;23.408;2023-05-22T08:24:09;94721.31;;;23.32;43.81
19761;BME280;10039;42.632;23.408;2023-05-22T08:26:34;94707.91;;;23.45;43.48
19761;BME280;10039;42.632;23.408;2023-05-22T08:29:00;94735.28;;;23.74;42.48
19761;BME280;10039;42.632;23.408;2023-05-22T08:31:25;94729.56;;;23.94;43.37
19761;BME280;10039;42.632;23.408;2023-05-22T08:33:53;94724.69;;;23.65;43.43
19761;BME280;10039;42.632;23.408;2023-05-22T08:36:26;94725.78;;;24.02;43.36
19761;BME280;10039;42.632;23.408;2023-05-22T08:38:52;94740.50;;;23.83;42.91
19761;BME280;10039;42.632;23.408;2023-05-22T08:41:18;94728.97;;;24.12;42.09
19761;BME280;10039;42.632;23.408;2023-05-22T08:43:43;94723.63;;;23.90;40.04
19761;BME280;10039;42.632;23.408;2023-05-22T08:46:09;94722.16;;;24.35;40.29
19761;BME280;10039;42.632;23.408;2023-05-22T08:48:36;94736.16;;;24.61;40.25
19761;BME280;10039;42.632;23.408;2023-05-22T08:51:06;94729.09;;;24.30;38.50
19761;BME280;10039;42.632;23.408;2023-05-22T08:53:36;94710.34;;;24.16;39.83
19761;BME280;10039;42.632;23.408;2023-05-22T08:56:05;94704.78;;;24.73;39.22
19761;BME280;10039;42.632;23.408;2023-05-22T08:58:35;94719.56;;;25.17;38.45
19761;BME280;10039;42.632;23.408;2023-05-22T09:01:02;94722.34;;;25.12;37.59
19761;BME280;10039;42.632;23.408;2023-05-22T09:03:31;94703.63;;;24.92;38.95
19761;BME280;10039;42.632;23.408;2023-05-22T09:06:00;94720.59;;;25.14;38.97
19761;BME280;10039;42.632;23.408;2023-05-22T09:08:26;94722.41;;;25.01;38.48
19761;BME280;10039;42.632;23.408;2023-05-22T09:10:53;94709.00;;;25.03;37.76
19761;BME280;10039;42.632;23.408;2023-05-22T09:13:29;94714.78;;;24.94;38.63
19761;BME280;10039;42.632;23.408;2023-05-22T09:16:06;94717.03;;;24.61;37.85
19761;BME280;10039;42.632;23.408;2023-05-22T09:18:34;94699.84;;;25.01;38.63
19761;BME280;10039;42.632;23.408;2023-05-22T09:21:01;94714.09;;;25.65;37.71
19761;BME280;10039;42.632;23.408;2023-05-22T09:23:28;94701.59;;;25.51;39.14
19761;BME280;10039;42.632;23.408;2023-05-22T09:25:55;94712.25;;;25.73;38.31
19761;BME280;10039;42.632;23.408;2023-05-22T09:28:21;94700.66;;;25.91;37.06
19761;BME280;10039;42.632;23.408;2023-05-22T09:30:48;94706.78;;;25.73;35.12
19761;BME280;10039;42.632;23.408;2023-05-22T09:33:14;94716.25;;;25.96;36.82
19761;BME280;10039;42.632;23.408;2023-05-22T09:35:50;94704.41;;;25.40;36.07
19761;BME280;10039;42.632;23.408;2023-05-22T09:38:16;94708.09;;;25.24;35.69
19761;BME280;10039;42.632;23.408;2023-05-22T09:40:41;94684.75;;;25.23;38.20
19761;BME280;10039;42.632;23.408;2023-05-22T09:43:10;94673.97;;;25.31;39.32
19761;BME280;10039;42.632;23.408;2023-05-22T09:45:37;94717.19;;;25.56;37.13
19761;BME280;10039;42.632;23.408;2023-05-22T09:48:07;94701.31;;;25.73;37.86
19761;BME280;10039;42.632;23.408;2023-05-22T09:50:34;94695.66;;;25.23;35.40
19761;BME280;10039;42.632;23.408;2023-05-22T09:53:04;94702.38;;;25.46;36.24
19761;BME280;10039;42.632;23.408;2023-05-22T09:55:30;94713.13;;;25.87;36.03
19761;BME280;10039;42.632;23.408;2023-05-22T09:57:57;94720.03;;;25.93;38.11
19761;BME280;10039;42.632;23.408;2023-05-22T10:00:27;94715.94;;;26.00;36.53
19761;BME280;10039;42.632;23.408;2023-05-22T10:02:58;94706.91;;;25.86;37.29
19761;BME280;10039;42.632;23.408;2023-05-22T10:05:31;94702.31;;;25.76;37.67
19761;BME280;10039;42.632;23.408;2023-05-22T10:08:03;94684.88;;;25.79;37.33
19761;BME280;10039;42.632;23.408;2023-05-22T10:10:30;94682.44;;;25.51;38.29
19761;BME280;10039;42.632;23.408;2023-05-22T10:13:02;94690.41;;;25.49;36.73
19761;BME280;10039;42.632;23.408;2023-05-22T10:15:29;94700.44;;;25.41;36.54
19761;BME280;10039;42.632;23.408;2023-05-22T10:17:59;94706.31;;;25.27;35.97
19761;BME280;10039;42.632;23.408;2023-05-22T10:20:25;94695.66;;;25.23;37.75
19761;BME280;10039;42.632;23.408;2023-05-22T10:22:52;94687.69;;;25.25;37.68
19761;BME280;10039;42.632;23.408;2023-05-22T10:25:18;94709.31;;;25.23;37.27
19761;BME280;10039;42.632;23.408;2023-05-22T10:27:43;94719.63;;;25.06;38.37
19761;BME280;10039;42.632;23.408;2023-05-22T10:30:18;94732.69;;;24.90;39.13
19761;BME280;10039;42.632;23.408;2023-05-22T10:33:16;94733.72;;;24.52;43.08
19761;BME280;10039;42.632;23.408;2023-05-22T10:35:50;94732.72;;;23.25;49.32
19761;BME280;10039;42.632;23.408;2023-05-22T10:40:54;94721.09;;;22.59;53.80
19761;BME280;10039;42.632;23.408;2023-05-22T10:43:21;94733.19;;;22.41;54.94
19761;BME280;10039;42.632;23.408;2023-05-22T10:45:47;94728.75;;;22.44;56.95
19761;BME280;10039;42.632;23.408;2023-05-22T10:48:12;94719.06;;;22.26;58.92
19761;BME280;10039;42.632;23.408;2023-05-22T10:50:38;94724.53;;;22.43;58.55
19761;BME280;10039;42.632;23.408;2023-05-22T10:53:18;94729.00;;;22.67;57.96
19761;BME280;10039;42.632;23.408;2023-05-22T10:55:56;94711.22;;;22.77;56.79
19761;BME280;10039;42.632;23.408;2023-05-22T10:58:27;94701.53;;;22.87;56.90
19761;BME280;10039;42.632;23.408;2023-05-22T11:01:19;94692.88;;;22.62;53.52
19761;BME280;10039;42.632;23.408;2023-05-22T11:03:57;94707.25;;;22.67;53.43
19761;BME280;10039;42.632;23.408;2023-05-22T11:11:43;94705.44;;;22.32;51.76
19761;BME280;10039;42.632;23.408;2023-05-22T11:14:18;94700.00;;;21.57;52.28
19761;BME280;10039;42.632;23.408;2023-05-22T11:16:44;94705.44;;;21.10;53.87
19761;BME280;10039;42.632;23.408;2023-05-22T11:19:10;94698.78;;;20.74;52.90
19761;BME280;10039;42.632;23.408;2023-05-22T11:21:45;94718.94;;;20.12;53.20
19761;BME280;10039;42.632;23.408;2023-05-22T11:24:16;94728.84;;;19.75;54.44
19761;BME280;10039;42.632;23.408;2023-05-22T11:26:59;94731.69;;;19.46;53.08
19761;BME280;10039;42.632;23.408;2023-05-22T11:29:26;94753.69;;;19.53;53.91
19761;BME280;10039;42.632;23.408;2023-05-22T11:31:53;94765.22;;;19.68;55.21
19761;BME280;10039;42.632;23.408;2023-05-22T11:34:19;94788.00;;;19.62;56.43
19761;BME280;10039;42.632;23.408;2023-05-22T11:36:46;94761.63;;;19.08;58.72
19761;BME280;10039;42.632;23.408;2023-05-22T11:39:15;94785.00;;;19.40;60.26
19761;BME280;10039;42.632;23.408;2023-05-22T11:41:41;94796.50;;;19.35;60.00
19761;BME280;10039;42.632;23.408;2023-05-22T11:44:07;94790.75;;;18.99;60.84
19761;BME280;10039;42.632;23.408;2023-05-22T11:46:33;94795.13;;;18.96;62.75
19761;BME280;10039;42.632;23.408;2023-05-22T11:48:59;94758.50;;;18.95;61.32
19761;BME280;10039;42.632;23.408;2023-05-22T11:51:26;94770.69;;;19.05;62.74
19761;BME280;10039;42.632;23.408;2023-05-22T11:53:52;94783.09;;;19.26;62.57
19761;BME280;10039;42.632;23.408;2023-05-22T11:56:19;94773.75;;;19.13;63.03
19761;BME280;10039;42.632;23.408;2023-05-22T11:58:48;94777.97;;;18.99;63.77
19761;BME280;10039;42.632;23.408;2023-05-22T12:01:14;94785.03;;;19.11;64.09
19761;BME280;10039;42.632;23.408;2023-05-22T12:03:40;94787.41;;;18.89;64.92
19761;BME280;10039;42.632;23.408;2023-05-22T12:06:06;94777.50;;;19.15;64.95
19761;BME280;10039;42.632;23.408;2023-05-22T12:08:32;94779.91;;;19.27;64.95
19761;BME280;10039;42.632;23.408;2023-05-22T12:10:58;94788.09;;;19.33;65.70
19761;BME280;10039;42.632;23.408;2023-05-22T12:13:25;94777.13;;;19.22;65.97
19761;BME280;10039;42.632;23.408;2023-05-22T12:15:56;94786.22;;;19.39;66.00
19761;BME280;10039;42.632;23.408;2023-05-22T12:18:22;94786.84;;;19.14;66.53
19761;BME280;10039;42.632;23.408;2023-05-22T12:20:51;94783.28;;;19.22;66.85
19761;BME280;10039;42.632;23.408;2023-05-22T12:23:25;94776.75;;;19.15;66.90
19761;BME280;10039;42.632;23.408;2023-05-22T12:25:56;94770.22;;;19.07;68.22
19761;BME280;10039;42.632;23.408;2023-05-22T12:28:21;94763.38;;;18.62;69.24
19761;BME280;10039;42.632;23.408;2023-05-22T12:30:51;94774.56;;;18.70;69.04
19761;BME280;10039;42.632;23.408;2023-05-22T12:33:17;94757.41;;;18.73;68.71
19761;BME280;10039;42.632;23.408;2023-05-22T12:35:43;94766.72;;;18.86;69.03
19761;BME280;10039;42.632;23.408;2023-05-22T12:38:09;94763.91;;;18.95;69.44
19761;BME280;10039;42.632;23.408;2023-05-22T12:40:35;94762.13;;;19.07;68.52
19761;BME280;10039;42.632;23.408;2023-05-22T12:43:00;94757.66;;;19.38;65.73
19761;BME280;10039;42.632;23.408;2023-05-22T12:45:25;94751.56;;;19.23;69.10
19761;BME280;10039;42.632;23.408;2023-05-22T12:47:51;94760.59;;;19.54;67.12
19761;BME280;10039;42.632;23.408;2023-05-22T12:50:16;94747.19;;;19.65;66.53
19761;BME280;10039;42.632;23.408;2023-05-22T12:52:41;94751.44;;;19.92;65.17
19761;BME280;10039;42.632;23.408;2023-05-22T12:55:09;94742.63;;;20.17;64.87
19761;BME280;10039;42.632;23.408;2023-05-22T12:57:34;94737.78;;;20.26;65.01
19761;BME280;10039;42.632;23.408;2023-05-22T13:00:00;94746.56;;;20.41;64.21
19761;BME280;10039;42.632;23.408;2023-05-22T13:02:25;94739.47;;;20.74;62.91
19761;BME280;10039;42.632;23.408;2023-05-22T13:04:50;94724.75;;;20.81;61.63
19761;BME280;10039;42.632;23.408;2023-05-22T13:07:16;94741.50;;;21.10;58.52
19761;BME280;10039;42.632;23.408;2023-05-22T13:09:41;94723.72;;;21.09;58.25
19761;BME280;10039;42.632;23.408;2023-05-22T13:12:07;94706.41;;;21.07;53.89
19761;BME280;10039;42.632;23.408;2023-05-22T13:14:34;94740.19;;;21.42;55.16
19761;BME280;10039;42.632;23.408;2023-05-22T13:17:02;94702.19;;;21.48;54.83